THY1FG LTFM-LRCL
Flight info
| Callsign | THY1FG |
|---|---|
| Flight time | 1h 16m |
| Altitude | 36000 |
| Route | IBLAX1D/35L IBLAX P727 BGS L622 GONGO DCT RONBU DCT DOKUD |
| Aircraft | A21N/M-SDE2E3FGHIRWXY/LB1 |
Departure
| Time | 2026-04-25 19:55 |
|---|---|
| Airport | İstanbul Airport (LTFM) |
Arrival
| Time | 2026-04-25 21:12 |
|---|---|
| Airport | Avram Iancu Cluj International Airport (LRCL) |
| Time | Latitude | Longitude | Altitude | Speed | Heading |
|---|---|---|---|---|---|
| 2026-04-25 19:26 | 41.26698 | 28.73794 | 332 ft | 0 kts | 269° |
| 2026-04-25 19:40 | 41.26698 | 28.73800 | 332 ft | 3 kts | 269° |
| 2026-04-25 19:40 | 41.26698 | 28.73825 | 335 ft | 3 kts | 269° |
| 2026-04-25 19:41 | 41.26699 | 28.73850 | 333 ft | 3 kts | 242° |
| 2026-04-25 19:41 | 41.26713 | 28.73865 | 333 ft | 3 kts | 202° |
| 2026-04-25 19:41 | 41.26724 | 28.73868 | 332 ft | 0 kts | 180° |
| 2026-04-25 19:46 | 41.26729 | 28.73868 | 332 ft | 0 kts | 160° |
| 2026-04-25 19:46 | 41.26721 | 28.73871 | 334 ft | 4 kts | 170° |
| 2026-04-25 19:46 | 41.26663 | 28.73875 | 337 ft | 13 kts | 178° |
| 2026-04-25 19:46 | 41.26606 | 28.73878 | 334 ft | 0 kts | 178° |
| 2026-04-25 19:48 | 41.26603 | 28.73878 | 335 ft | 2 kts | 178° |
| 2026-04-25 19:48 | 41.26575 | 28.73884 | 333 ft | 5 kts | 153° |
| 2026-04-25 19:48 | 41.26559 | 28.73941 | 334 ft | 9 kts | 88° |
| 2026-04-25 19:49 | 41.26577 | 28.74019 | 332 ft | 6 kts | 32° |
| 2026-04-25 19:49 | 41.26594 | 28.74025 | 335 ft | 8 kts | 5° |
| 2026-04-25 19:49 | 41.26782 | 28.74019 | 333 ft | 21 kts | 358° |
| 2026-04-25 19:49 | 41.26913 | 28.74018 | 334 ft | 7 kts | 360° |
| 2026-04-25 19:50 | 41.26966 | 28.73978 | 337 ft | 9 kts | 288° |
| 2026-04-25 19:50 | 41.26964 | 28.73854 | 337 ft | 17 kts | 268° |
| 2026-04-25 19:50 | 41.26959 | 28.73666 | 334 ft | 23 kts | 270° |
| 2026-04-25 19:51 | 41.26958 | 28.73436 | 332 ft | 26 kts | 268° |
| 2026-04-25 19:51 | 41.26955 | 28.73261 | 337 ft | 5 kts | 269° |
| 2026-04-25 19:51 | 41.26954 | 28.73191 | 337 ft | 10 kts | 269° |
| 2026-04-25 19:51 | 41.26953 | 28.73080 | 337 ft | 14 kts | 270° |
| 2026-04-25 19:52 | 41.26916 | 28.72989 | 333 ft | 12 kts | 191° |
| 2026-04-25 19:52 | 41.26824 | 28.72989 | 336 ft | 15 kts | 180° |
| 2026-04-25 19:52 | 41.26736 | 28.72977 | 333 ft | 9 kts | 211° |
| 2026-04-25 19:52 | 41.26718 | 28.72952 | 335 ft | 0 kts | 242° |
| 2026-04-25 19:53 | 41.26717 | 28.72947 | 332 ft | 0 kts | 242° |
| 2026-04-25 19:53 | 41.26716 | 28.72941 | 332 ft | 2 kts | 258° |
| 2026-04-25 19:53 | 41.26716 | 28.72907 | 333 ft | 6 kts | 270° |
| 2026-04-25 19:54 | 41.26716 | 28.72830 | 337 ft | 11 kts | 271° |
| 2026-04-25 19:54 | 41.26716 | 28.72713 | 337 ft | 15 kts | 269° |
| 2026-04-25 19:54 | 41.26716 | 28.72562 | 337 ft | 16 kts | 281° |
| 2026-04-25 19:54 | 41.26731 | 28.72524 | 334 ft | 12 kts | 314° |
| 2026-04-25 19:55 | 41.27076 | 28.72513 | 335 ft | 89 kts | 360° |
| 2026-04-25 19:55 | 41.28012 | 28.72489 | 336 ft | 176 kts | 359° |
| 2026-04-25 19:55 | 41.29354 | 28.72449 | 751 ft | 205 kts | 358° |
| 2026-04-25 19:55 | 41.30858 | 28.72382 | 1297 ft | 230 kts | 359° |
| 2026-04-25 19:56 | 41.32551 | 28.72281 | 1883 ft | 256 kts | 358° |
| 2026-04-25 19:56 | 41.34408 | 28.72144 | 2571 ft | 280 kts | 356° |
| 2026-04-25 19:56 | 41.36439 | 28.71959 | 3362 ft | 305 kts | 355° |
| 2026-04-25 19:56 | 41.38627 | 28.71719 | 4182 ft | 325 kts | 355° |
| 2026-04-25 19:57 | 41.40942 | 28.71420 | 5051 ft | 342 kts | 354° |
| 2026-04-25 19:57 | 41.43356 | 28.71062 | 5954 ft | 356 kts | 353° |
| 2026-04-25 19:57 | 41.45847 | 28.70606 | 6906 ft | 364 kts | 347° |
| 2026-04-25 19:57 | 41.48107 | 28.69242 | 8337 ft | 354 kts | 323° |
| 2026-04-25 19:58 | 41.49948 | 28.67131 | 9942 ft | 345 kts | 317° |
| 2026-04-25 19:58 | 41.51784 | 28.65123 | 11506 ft | 338 kts | 322° |
| 2026-04-25 19:58 | 41.53701 | 28.63355 | 13079 ft | 333 kts | 327° |
| 2026-04-25 19:58 | 41.55686 | 28.61757 | 14361 ft | 334 kts | 329° |
| 2026-04-25 19:59 | 41.57620 | 28.60007 | 15483 ft | 338 kts | 320° |
| 2026-04-25 19:59 | 41.59304 | 28.57793 | 16559 ft | 343 kts | 313° |
| 2026-04-25 19:59 | 41.60905 | 28.55420 | 17629 ft | 348 kts | 312° |
| 2026-04-25 19:59 | 41.62536 | 28.52971 | 18629 ft | 354 kts | 312° |
| 2026-04-25 20:00 | 41.64191 | 28.50502 | 19528 ft | 359 kts | 312° |
| 2026-04-25 20:00 | 41.64757 | 28.49663 | 19829 ft | 360 kts | 313° |
| 2026-04-25 20:00 | 41.67896 | 28.45947 | 21320 ft | 368 kts | 328° |
| 2026-04-25 20:00 | 41.70178 | 28.44364 | 22186 ft | 372 kts | 335° |
| 2026-04-25 20:01 | 41.75009 | 28.41645 | 23709 ft | 380 kts | 337° |
| 2026-04-25 20:01 | 41.77449 | 28.40296 | 23947 ft | 381 kts | 337° |
| 2026-04-25 20:01 | 41.79908 | 28.38929 | 23993 ft | 382 kts | 337° |
| 2026-04-25 20:02 | 41.82367 | 28.37556 | 23997 ft | 384 kts | 337° |
| 2026-04-25 20:02 | 41.84845 | 28.36168 | 24335 ft | 388 kts | 337° |
| 2026-04-25 20:02 | 41.87346 | 28.34764 | 25083 ft | 390 kts | 337° |
| 2026-04-25 20:02 | 41.89851 | 28.33356 | 25827 ft | 391 kts | 337° |
| 2026-04-25 20:03 | 41.92367 | 28.31940 | 26503 ft | 394 kts | 337° |
| 2026-04-25 20:03 | 41.94874 | 28.30434 | 27153 ft | 396 kts | 333° |
| 2026-04-25 20:03 | 41.97238 | 28.28501 | 27778 ft | 400 kts | 324° |
| 2026-04-25 20:03 | 41.99340 | 28.26031 | 28358 ft | 404 kts | 314° |
| 2026-04-25 20:04 | 42.01133 | 28.23099 | 28908 ft | 408 kts | 308° |
| 2026-04-25 20:04 | 42.02802 | 28.19991 | 29450 ft | 412 kts | 306° |
| 2026-04-25 20:04 | 42.04422 | 28.16789 | 29990 ft | 416 kts | 305° |
| 2026-04-25 20:04 | 42.06030 | 28.13529 | 30435 ft | 419 kts | 305° |
| 2026-04-25 20:05 | 42.07639 | 28.10249 | 30876 ft | 422 kts | 305° |
| 2026-04-25 20:05 | 42.09258 | 28.06963 | 31441 ft | 420 kts | 305° |
| 2026-04-25 20:05 | 42.10878 | 28.03694 | 32031 ft | 419 kts | 305° |
| 2026-04-25 20:05 | 42.12497 | 28.00444 | 32605 ft | 417 kts | 306° |
| 2026-04-25 20:06 | 42.14113 | 27.97211 | 33168 ft | 416 kts | 306° |
| 2026-04-25 20:06 | 42.15730 | 27.93982 | 33683 ft | 415 kts | 306° |
| 2026-04-25 20:06 | 42.17345 | 27.90757 | 34168 ft | 414 kts | 306° |
| 2026-04-25 20:06 | 42.18952 | 27.87544 | 34606 ft | 413 kts | 306° |
| 2026-04-25 20:07 | 42.20597 | 27.84380 | 35054 ft | 411 kts | 310° |
| 2026-04-25 20:07 | 42.22489 | 27.81519 | 35481 ft | 408 kts | 317° |
| 2026-04-25 20:07 | 42.24668 | 27.79081 | 35864 ft | 407 kts | 326° |
| 2026-04-25 20:07 | 42.27052 | 27.77037 | 35979 ft | 405 kts | 330° |
| 2026-04-25 20:08 | 42.31956 | 27.73334 | 35989 ft | 404 kts | 333° |
| 2026-04-25 20:08 | 42.36920 | 27.69778 | 35987 ft | 404 kts | 333° |
| 2026-04-25 20:09 | 42.41881 | 27.66197 | 35984 ft | 404 kts | 332° |
| 2026-04-25 20:09 | 42.46830 | 27.62576 | 35978 ft | 404 kts | 333° |
| 2026-04-25 20:10 | 42.51754 | 27.58949 | 35991 ft | 402 kts | 332° |
| 2026-04-25 20:10 | 42.56624 | 27.55354 | 35987 ft | 401 kts | 332° |
| 2026-04-25 20:11 | 42.61312 | 27.51247 | 35987 ft | 402 kts | 326° |
| 2026-04-25 20:11 | 42.65866 | 27.46842 | 35985 ft | 402 kts | 325° |
| 2026-04-25 20:12 | 42.69627 | 27.43131 | 35986 ft | 402 kts | 325° |
| 2026-04-25 20:12 | 42.73414 | 27.39385 | 35981 ft | 401 kts | 325° |
| 2026-04-25 20:13 | 42.78664 | 27.34198 | 35988 ft | 401 kts | 325° |
| 2026-04-25 20:13 | 42.83181 | 27.29734 | 35974 ft | 402 kts | 325° |
| 2026-04-25 20:14 | 42.87707 | 27.25255 | 35953 ft | 402 kts | 325° |
| 2026-04-25 20:14 | 42.92227 | 27.20773 | 35964 ft | 402 kts | 325° |
| 2026-04-25 20:15 | 42.96750 | 27.16279 | 35965 ft | 402 kts | 325° |
| 2026-04-25 20:15 | 43.01268 | 27.11783 | 35960 ft | 402 kts | 324° |
| 2026-04-25 20:16 | 43.05791 | 27.07273 | 35965 ft | 402 kts | 324° |
| 2026-04-25 20:16 | 43.10470 | 27.03116 | 35959 ft | 401 kts | 334° |
| 2026-04-25 20:17 | 43.15574 | 27.00027 | 35963 ft | 401 kts | 337° |
| 2026-04-25 20:17 | 43.20748 | 26.97158 | 35960 ft | 401 kts | 338° |
| 2026-04-25 20:18 | 43.25935 | 26.94327 | 35963 ft | 402 kts | 338° |
| 2026-04-25 20:18 | 43.31122 | 26.91473 | 35966 ft | 401 kts | 337° |
| 2026-04-25 20:19 | 43.36244 | 26.88633 | 35962 ft | 399 kts | 337° |
| 2026-04-25 20:19 | 43.41382 | 26.85774 | 35961 ft | 398 kts | 337° |
| 2026-04-25 20:20 | 43.46518 | 26.82910 | 35963 ft | 399 kts | 337° |
| 2026-04-25 20:20 | 43.51659 | 26.80038 | 35960 ft | 399 kts | 337° |
| 2026-04-25 20:21 | 43.56806 | 26.77158 | 35958 ft | 399 kts | 337° |
| 2026-04-25 20:21 | 43.61950 | 26.74276 | 35958 ft | 399 kts | 337° |
| 2026-04-25 20:22 | 43.66226 | 26.71875 | 35961 ft | 399 kts | 337° |
| 2026-04-25 20:22 | 43.72240 | 26.68492 | 35960 ft | 399 kts | 337° |
| 2026-04-25 20:23 | 43.77383 | 26.65593 | 35954 ft | 399 kts | 336° |
| 2026-04-25 20:23 | 43.82530 | 26.62687 | 35952 ft | 400 kts | 336° |
| 2026-04-25 20:24 | 43.87677 | 26.59776 | 35946 ft | 399 kts | 336° |
| 2026-04-25 20:24 | 43.92817 | 26.56862 | 35947 ft | 399 kts | 336° |
| 2026-04-25 20:25 | 43.97961 | 26.53942 | 35946 ft | 399 kts | 336° |
| 2026-04-25 20:25 | 44.03106 | 26.51015 | 35948 ft | 400 kts | 336° |
| 2026-04-25 20:26 | 44.08190 | 26.48008 | 35944 ft | 400 kts | 335° |
| 2026-04-25 20:26 | 44.13278 | 26.44897 | 35943 ft | 400 kts | 335° |
| 2026-04-25 20:27 | 44.18374 | 26.41778 | 35941 ft | 400 kts | 335° |
| 2026-04-25 20:27 | 44.23473 | 26.38653 | 35941 ft | 400 kts | 335° |
| 2026-04-25 20:28 | 44.28577 | 26.35519 | 35936 ft | 401 kts | 334° |
| 2026-04-25 20:28 | 44.33686 | 26.32377 | 35935 ft | 401 kts | 334° |
| 2026-04-25 20:29 | 44.38792 | 26.29231 | 35935 ft | 401 kts | 334° |
| 2026-04-25 20:29 | 44.43894 | 26.26081 | 35933 ft | 401 kts | 334° |
| 2026-04-25 20:30 | 44.48991 | 26.22928 | 35956 ft | 400 kts | 334° |
| 2026-04-25 20:30 | 44.54084 | 26.19772 | 35941 ft | 400 kts | 334° |
| 2026-04-25 20:31 | 44.59165 | 26.16617 | 35936 ft | 399 kts | 334° |
| 2026-04-25 20:31 | 44.64245 | 26.13456 | 35938 ft | 399 kts | 334° |
| 2026-04-25 20:32 | 44.69308 | 26.10300 | 35941 ft | 398 kts | 334° |
| 2026-04-25 20:32 | 44.74370 | 26.07139 | 35943 ft | 398 kts | 333° |
| 2026-04-25 20:33 | 44.79392 | 26.03996 | 35941 ft | 398 kts | 333° |
| 2026-04-25 20:33 | 44.83629 | 26.01340 | 35941 ft | 398 kts | 333° |
| 2026-04-25 20:34 | 44.89497 | 25.97655 | 35934 ft | 397 kts | 333° |
| 2026-04-25 20:34 | 44.94547 | 25.94476 | 35950 ft | 397 kts | 333° |
| 2026-04-25 20:35 | 44.99597 | 25.91293 | 35950 ft | 397 kts | 333° |
| 2026-04-25 20:35 | 45.04639 | 25.88107 | 35952 ft | 397 kts | 333° |
| 2026-04-25 20:36 | 45.09678 | 25.84917 | 35959 ft | 397 kts | 333° |
| 2026-04-25 20:36 | 45.14712 | 25.81724 | 35967 ft | 396 kts | 332° |
| 2026-04-25 20:37 | 45.19737 | 25.78531 | 35962 ft | 396 kts | 332° |
| 2026-04-25 20:37 | 45.24752 | 25.75338 | 35856 ft | 393 kts | 332° |
| 2026-04-25 20:38 | 45.27237 | 25.73755 | 35264 ft | 390 kts | 332° |
| 2026-04-25 20:38 | 45.29688 | 25.72190 | 34625 ft | 389 kts | 332° |
| 2026-04-25 20:38 | 45.32174 | 25.70602 | 33934 ft | 388 kts | 332° |
| 2026-04-25 20:38 | 45.34627 | 25.69033 | 33196 ft | 386 kts | 332° |
| 2026-04-25 20:39 | 45.37075 | 25.67466 | 32385 ft | 386 kts | 332° |
| 2026-04-25 20:39 | 45.39524 | 25.65896 | 31599 ft | 386 kts | 332° |
| 2026-04-25 20:39 | 45.41973 | 25.64325 | 30832 ft | 386 kts | 332° |
| 2026-04-25 20:39 | 45.43627 | 25.63263 | 30336 ft | 386 kts | 332° |
| 2026-04-25 20:40 | 45.46871 | 25.61179 | 29236 ft | 386 kts | 332° |
| 2026-04-25 20:40 | 45.49320 | 25.59603 | 28421 ft | 386 kts | 332° |
| 2026-04-25 20:40 | 45.51763 | 25.58031 | 27607 ft | 385 kts | 332° |
| 2026-04-25 20:40 | 45.54198 | 25.56461 | 26805 ft | 384 kts | 332° |
| 2026-04-25 20:41 | 45.56627 | 25.54895 | 26042 ft | 383 kts | 332° |
| 2026-04-25 20:41 | 45.59052 | 25.53329 | 25293 ft | 382 kts | 332° |
| 2026-04-25 20:41 | 45.61473 | 25.51763 | 24560 ft | 381 kts | 333° |
| 2026-04-25 20:41 | 45.63880 | 25.50206 | 23852 ft | 379 kts | 333° |
| 2026-04-25 20:42 | 45.66276 | 25.48655 | 23070 ft | 377 kts | 333° |
| 2026-04-25 20:42 | 45.68658 | 25.47112 | 22239 ft | 375 kts | 333° |
| 2026-04-25 20:42 | 45.71024 | 25.45578 | 21422 ft | 372 kts | 333° |
| 2026-04-25 20:42 | 45.73371 | 25.44055 | 20663 ft | 370 kts | 333° |
| 2026-04-25 20:43 | 45.75706 | 25.42538 | 19928 ft | 367 kts | 332° |
| 2026-04-25 20:43 | 45.78020 | 25.41033 | 19195 ft | 364 kts | 332° |
| 2026-04-25 20:43 | 45.80316 | 25.39538 | 18478 ft | 361 kts | 333° |
| 2026-04-25 20:43 | 45.82590 | 25.38055 | 17700 ft | 358 kts | 333° |
| 2026-04-25 20:44 | 45.84850 | 25.36580 | 16900 ft | 355 kts | 333° |
| 2026-04-25 20:44 | 45.87087 | 25.35119 | 16134 ft | 352 kts | 333° |
| 2026-04-25 20:44 | 45.89310 | 25.33667 | 15372 ft | 349 kts | 333° |
| 2026-04-25 20:44 | 45.91515 | 25.32225 | 14637 ft | 347 kts | 334° |
| 2026-04-25 20:45 | 45.93697 | 25.30796 | 13907 ft | 344 kts | 334° |
| 2026-04-25 20:45 | 45.95864 | 25.29377 | 13123 ft | 340 kts | 334° |
| 2026-04-25 20:45 | 45.98006 | 25.27972 | 12336 ft | 337 kts | 334° |
| 2026-04-25 20:45 | 46.00130 | 25.26579 | 11565 ft | 334 kts | 334° |
| 2026-04-25 20:46 | 46.02232 | 25.25198 | 10815 ft | 330 kts | 334° |
| 2026-04-25 20:46 | 46.04308 | 25.23833 | 10084 ft | 326 kts | 334° |
| 2026-04-25 20:46 | 46.06361 | 25.22483 | 9295 ft | 322 kts | 334° |
| 2026-04-25 20:46 | 46.08382 | 25.21153 | 8499 ft | 318 kts | 333° |
| 2026-04-25 20:47 | 46.10381 | 25.19837 | 7736 ft | 314 kts | 333° |
| 2026-04-25 20:47 | 46.12355 | 25.18534 | 6984 ft | 310 kts | 333° |
| 2026-04-25 20:47 | 46.14306 | 25.17246 | 6235 ft | 307 kts | 333° |
| 2026-04-25 20:47 | 46.16240 | 25.15969 | 5452 ft | 304 kts | 333° |
| 2026-04-25 20:48 | 46.18158 | 25.14704 | 4702 ft | 301 kts | 332° |
| 2026-04-25 20:48 | 46.20052 | 25.13451 | 3967 ft | 298 kts | 332° |
| 2026-04-25 20:48 | 46.21944 | 25.12200 | 3822 ft | 303 kts | 332° |
| 2026-04-25 20:48 | 46.23897 | 25.10899 | 4396 ft | 316 kts | 333° |
| 2026-04-25 20:49 | 46.25891 | 25.09576 | 5699 ft | 314 kts | 334° |
| 2026-04-25 20:49 | 46.27828 | 25.08294 | 7263 ft | 305 kts | 333° |
| 2026-04-25 20:49 | 46.29667 | 25.07078 | 8643 ft | 277 kts | 333° |
| 2026-04-25 20:49 | 46.31377 | 25.05945 | 9471 ft | 269 kts | 333° |
| 2026-04-25 20:50 | 46.33081 | 25.04808 | 9862 ft | 268 kts | 333° |
| 2026-04-25 20:50 | 46.34775 | 25.03678 | 9934 ft | 269 kts | 333° |
| 2026-04-25 20:50 | 46.36534 | 25.02501 | 9944 ft | 285 kts | 333° |
| 2026-04-25 20:50 | 46.38327 | 25.01196 | 9942 ft | 298 kts | 329° |
| 2026-04-25 20:51 | 46.40072 | 24.99576 | 9928 ft | 292 kts | 322° |
| 2026-04-25 20:51 | 46.41575 | 24.97755 | 9927 ft | 273 kts | 315° |
| 2026-04-25 20:51 | 46.42852 | 24.95771 | 9930 ft | 268 kts | 309° |
| 2026-04-25 20:51 | 46.43960 | 24.93569 | 9943 ft | 279 kts | 302° |
| 2026-04-25 20:52 | 46.44934 | 24.91028 | 9941 ft | 295 kts | 296° |
| 2026-04-25 20:52 | 46.45471 | 24.89165 | 9935 ft | 298 kts | 291° |
| 2026-04-25 20:52 | 46.46177 | 24.85369 | 9923 ft | 284 kts | 281° |
| 2026-04-25 20:52 | 46.46392 | 24.82592 | 9929 ft | 272 kts | 275° |
| 2026-04-25 20:53 | 46.46395 | 24.79854 | 9932 ft | 271 kts | 271° |
| 2026-04-25 20:53 | 46.46403 | 24.77094 | 9940 ft | 282 kts | 277° |
| 2026-04-25 20:53 | 46.46812 | 24.74232 | 9939 ft | 295 kts | 289° |
| 2026-04-25 20:53 | 46.47520 | 24.71419 | 9938 ft | 299 kts | 292° |
| 2026-04-25 20:54 | 46.48291 | 24.68628 | 9936 ft | 295 kts | 292° |
| 2026-04-25 20:54 | 46.49031 | 24.65965 | 9928 ft | 275 kts | 292° |
| 2026-04-25 20:54 | 46.49734 | 24.63426 | 9932 ft | 269 kts | 292° |
| 2026-04-25 20:54 | 46.50427 | 24.60908 | 9934 ft | 268 kts | 292° |
| 2026-04-25 20:55 | 46.51126 | 24.58362 | 9947 ft | 282 kts | 292° |
| 2026-04-25 20:55 | 46.51872 | 24.55638 | 9944 ft | 295 kts | 292° |
| 2026-04-25 20:55 | 46.52632 | 24.52849 | 9938 ft | 299 kts | 292° |
| 2026-04-25 20:55 | 46.53385 | 24.50081 | 9934 ft | 286 kts | 292° |
| 2026-04-25 20:56 | 46.54093 | 24.47475 | 9932 ft | 271 kts | 292° |
| 2026-04-25 20:56 | 46.54777 | 24.44951 | 9936 ft | 268 kts | 292° |
| 2026-04-25 20:56 | 46.55460 | 24.42437 | 9939 ft | 268 kts | 292° |
| 2026-04-25 20:56 | 46.56148 | 24.39898 | 9945 ft | 279 kts | 292° |
| 2026-04-25 20:57 | 46.56882 | 24.37188 | 9941 ft | 295 kts | 292° |
| 2026-04-25 20:57 | 46.57639 | 24.34390 | 9933 ft | 299 kts | 292° |
| 2026-04-25 20:57 | 46.58383 | 24.31631 | 9928 ft | 285 kts | 292° |
| 2026-04-25 20:57 | 46.59087 | 24.29017 | 9925 ft | 271 kts | 292° |
| 2026-04-25 20:58 | 46.59769 | 24.26483 | 9930 ft | 268 kts | 292° |
| 2026-04-25 20:58 | 46.60448 | 24.23958 | 9930 ft | 268 kts | 292° |
| 2026-04-25 20:58 | 46.60901 | 24.22275 | 9940 ft | 276 kts | 292° |
| 2026-04-25 20:58 | 46.61627 | 24.19576 | 9941 ft | 294 kts | 292° |
| 2026-04-25 20:59 | 46.62377 | 24.16782 | 9932 ft | 298 kts | 292° |
| 2026-04-25 20:59 | 46.63190 | 24.14053 | 9927 ft | 286 kts | 299° |
| 2026-04-25 20:59 | 46.64351 | 24.11816 | 9931 ft | 273 kts | 314° |
| 2026-04-25 20:59 | 46.65778 | 24.10009 | 9936 ft | 272 kts | 320° |
| 2026-04-25 21:00 | 46.67344 | 24.08362 | 9942 ft | 288 kts | 324° |
| 2026-04-25 21:00 | 46.68471 | 24.07271 | 9944 ft | 298 kts | 325° |
| 2026-04-25 21:00 | 46.72611 | 24.03425 | 9947 ft | 303 kts | 325° |
| 2026-04-25 21:01 | 46.74384 | 24.01757 | 9941 ft | 302 kts | 324° |
| 2026-04-25 21:01 | 46.75995 | 23.99874 | 9814 ft | 289 kts | 313° |
| 2026-04-25 21:01 | 46.77188 | 23.97629 | 9525 ft | 274 kts | 299° |
| 2026-04-25 21:01 | 46.77926 | 23.95116 | 9103 ft | 267 kts | 288° |
| 2026-04-25 21:02 | 46.78413 | 23.92506 | 8939 ft | 266 kts | 283° |
| 2026-04-25 21:02 | 46.78780 | 23.89863 | 8758 ft | 265 kts | 281° |
| 2026-04-25 21:02 | 46.79090 | 23.87215 | 8150 ft | 266 kts | 280° |
| 2026-04-25 21:02 | 46.79379 | 23.84552 | 7580 ft | 265 kts | 280° |
| 2026-04-25 21:03 | 46.79779 | 23.81963 | 7184 ft | 258 kts | 291° |
| 2026-04-25 21:03 | 46.80625 | 23.79704 | 6866 ft | 252 kts | 308° |
| 2026-04-25 21:03 | 46.81924 | 23.78073 | 6536 ft | 250 kts | 329° |
| 2026-04-25 21:03 | 46.83511 | 23.77061 | 6202 ft | 248 kts | 338° |
| 2026-04-25 21:04 | 46.85133 | 23.76257 | 5891 ft | 244 kts | 339° |
| 2026-04-25 21:04 | 46.86739 | 23.75544 | 5614 ft | 240 kts | 343° |
| 2026-04-25 21:04 | 46.88408 | 23.75362 | 5317 ft | 246 kts | 3° |
| 2026-04-25 21:04 | 46.90092 | 23.76218 | 5184 ft | 267 kts | 28° |
| 2026-04-25 21:05 | 46.91380 | 23.78150 | 4984 ft | 267 kts | 55° |
| 2026-04-25 21:05 | 46.92216 | 23.80556 | 4675 ft | 265 kts | 64° |
| 2026-04-25 21:05 | 46.92713 | 23.83145 | 4326 ft | 267 kts | 83° |
| 2026-04-25 21:05 | 46.92542 | 23.85813 | 4118 ft | 259 kts | 107° |
| 2026-04-25 21:06 | 46.91741 | 23.88043 | 4063 ft | 238 kts | 131° |
| 2026-04-25 21:06 | 46.90544 | 23.89532 | 3960 ft | 219 kts | 154° |
| 2026-04-25 21:06 | 46.89177 | 23.90401 | 3715 ft | 211 kts | 164° |
| 2026-04-25 21:06 | 46.88240 | 23.90863 | 3521 ft | 210 kts | 166° |
| 2026-04-25 21:07 | 46.86378 | 23.91617 | 3166 ft | 208 kts | 176° |
| 2026-04-25 21:07 | 46.85003 | 23.91266 | 2997 ft | 196 kts | 216° |
| 2026-04-25 21:07 | 46.84058 | 23.89973 | 2973 ft | 181 kts | 236° |
| 2026-04-25 21:07 | 46.83384 | 23.88507 | 2975 ft | 166 kts | 243° |
| 2026-04-25 21:08 | 46.82925 | 23.87030 | 2989 ft | 156 kts | 252° |
| 2026-04-25 21:08 | 46.82574 | 23.85554 | 3004 ft | 148 kts | 253° |
| 2026-04-25 21:08 | 46.82276 | 23.84255 | 2971 ft | 123 kts | 255° |
| 2026-04-25 21:08 | 46.82022 | 23.83117 | 2968 ft | 116 kts | 254° |
| 2026-04-25 21:09 | 46.81518 | 23.80896 | 2674 ft | 115 kts | 253° |
| 2026-04-25 21:09 | 46.81270 | 23.79779 | 2519 ft | 116 kts | 253° |
| 2026-04-25 21:09 | 46.81021 | 23.78660 | 2355 ft | 116 kts | 253° |
| 2026-04-25 21:10 | 46.80767 | 23.77520 | 2195 ft | 121 kts | 253° |
| 2026-04-25 21:10 | 46.80503 | 23.76334 | 2019 ft | 124 kts | 252° |
| 2026-04-25 21:10 | 46.80235 | 23.75132 | 1842 ft | 124 kts | 252° |
| 2026-04-25 21:10 | 46.79968 | 23.73931 | 1671 ft | 124 kts | 252° |
| 2026-04-25 21:11 | 46.79715 | 23.72732 | 1473 ft | 123 kts | 252° |
| 2026-04-25 21:11 | 46.79456 | 23.71553 | 1331 ft | 122 kts | 253° |
| 2026-04-25 21:11 | 46.79190 | 23.70377 | 1167 ft | 121 kts | 252° |
| 2026-04-25 21:11 | 46.78929 | 23.69217 | 1032 ft | 117 kts | 253° |
| 2026-04-25 21:12 | 46.78742 | 23.68372 | 1033 ft | 47 kts | 252° |
| 2026-04-25 21:12 | 46.78646 | 23.67949 | 1038 ft | 42 kts | 251° |
| 2026-04-25 21:12 | 46.78558 | 23.67549 | 1038 ft | 42 kts | 252° |
| 2026-04-25 21:12 | 46.78506 | 23.67318 | 1041 ft | 29 kts | 251° |
| 2026-04-25 21:13 | 46.78403 | 23.67198 | 1041 ft | 11 kts | 153° |
| 2026-04-25 21:13 | 46.78346 | 23.67288 | 1041 ft | 13 kts | 114° |
| 2026-04-25 21:13 | 46.78353 | 23.67436 | 1040 ft | 18 kts | 78° |
| 2026-04-25 21:13 | 46.78384 | 23.67654 | 1039 ft | 25 kts | 78° |
| 2026-04-25 21:14 | 46.78421 | 23.67933 | 1037 ft | 31 kts | 78° |
| 2026-04-25 21:14 | 46.78468 | 23.68269 | 1035 ft | 36 kts | 78° |
| 2026-04-25 21:14 | 46.78508 | 23.68573 | 1033 ft | 15 kts | 79° |
| 2026-04-25 21:14 | 46.78500 | 23.68635 | 1033 ft | 4 kts | 151° |
| 2026-04-25 21:15 | 46.78456 | 23.68649 | 1033 ft | 9 kts | 170° |
| 2026-04-25 21:15 | 46.78377 | 23.68667 | 1033 ft | 8 kts | 187° |
| 2026-04-25 21:15 | 46.78354 | 23.68639 | 1034 ft | 2 kts | 255° |
| 2026-04-25 21:15 | 46.78352 | 23.68614 | 1034 ft | 4 kts | 262° |
| 2026-04-25 21:16 | 46.78340 | 23.68555 | 1034 ft | 3 kts | 225° |
| 2026-04-25 21:16 | 46.78330 | 23.68550 | 1034 ft | 0 kts | 178° |